ROMMA est une association bénévole à but non lucratif. Votre soutien est indispensable : ADHERER à ROMMA ou FAIRE un DON

Granges-lès-Beaumont - (26, Drôme)

Drôme des Collines (155 m)   Longitude: 04°58'E   Latitude: 45°03'N Station partenaire n°123
 

Détail journalier du     <<     >>

Température Precipitation Humidité Pression Vent Dir Rafale Dir. rafale Ensol.
Heure (°C) (mm) (%) (hPa) (km/h) (km/h) (min)
01:00 10.10.49010032SO6SO0
02:00 9.8090100300---0
03:00 9.2094100300---0
04:00 8.6095100400---0
05:00 8.309510041---8NNO0
06:00 8.609610052NNO8NNO0
07:00 8.30.29510053NNO8NNO0
08:00 7.809610062NNO6NNO0
09:00 8.909510073NNO8NO0
10:00 10.309110081NO6NO0
11:00 12.108010085NE13ENE0
12:00 13.2071100810N21NNE30
13:00 12.7070100810NNE19NE10
14:00 12.8069100810NNE16NNO0
15:00 13.107010088NNE16NNE10
16:00 12.7067100810NNE19ENE0
17:00 11.207510088N15NNE0
18:00 10.108410085NNE10NNE0
19:00 10.108510083NNE6NNE0
20:00 9.008910083NNE6NNE0
21:00 7.709110082NNO6NNO0
22:00 6.909210082NE10NE0
23:00 5.9095100808ENE0
minuit 5.109510071NNE6NNE0

Graphique du 06-11-2019

 

Serveur OMMA